createdAt,value
2022-09-15T00:02:13.979Z,49.57
2022-09-15T00:04:40.511Z,49.89
2022-09-15T00:07:06.980Z,50.10
2022-09-15T00:09:33.359Z,50.14
2022-09-15T00:11:59.798Z,50.06
2022-09-15T00:14:26.300Z,50.37
2022-09-15T00:16:52.770Z,51.09
2022-09-15T00:19:19.262Z,51.10
2022-09-15T00:21:45.726Z,50.96
2022-09-15T00:24:12.153Z,51.31
2022-09-15T00:26:38.609Z,51.45
2022-09-15T00:29:05.015Z,51.43
2022-09-15T00:31:31.534Z,51.99
2022-09-15T00:33:58.416Z,53.08
2022-09-15T00:36:24.975Z,52.57
2022-09-15T00:38:51.718Z,52.17
2022-09-15T00:41:18.630Z,52.04
2022-09-15T00:43:45.156Z,52.00
2022-09-15T00:46:11.684Z,52.07
2022-09-15T00:48:39.186Z,52.29
2022-09-15T00:51:05.748Z,51.88
2022-09-15T00:53:32.164Z,51.97
2022-09-15T00:55:58.587Z,51.95
2022-09-15T00:58:33.029Z,52.56
2022-09-15T01:01:00.838Z,52.66
2022-09-15T01:03:27.772Z,52.06
2022-09-15T01:06:14.438Z,52.11
2022-09-15T01:08:45.658Z,52.23
2022-09-15T01:11:12.210Z,52.01
2022-09-15T01:13:38.699Z,51.96
2022-09-15T01:16:11.123Z,52.09
2022-09-15T01:18:37.507Z,52.04
2022-09-15T01:21:03.921Z,52.49
2022-09-15T01:23:59.543Z,52.64
2022-09-15T01:26:44.340Z,52.69
2022-09-15T01:29:16.882Z,52.75
2022-09-15T01:32:06.241Z,52.92
2022-09-15T01:34:33.915Z,53.00
2022-09-15T01:37:02.206Z,52.98
2022-09-15T01:39:29.579Z,52.91
2022-09-15T01:41:57.152Z,52.80
2022-09-15T01:44:24.955Z,52.28
2022-09-15T01:46:52.744Z,52.20
2022-09-15T01:49:21.084Z,51.91
2022-09-15T01:51:48.142Z,51.54
2022-09-15T01:54:14.585Z,51.31
2022-09-15T01:56:41.732Z,51.07
2022-09-15T01:59:08.687Z,50.88
2022-09-15T02:01:40.553Z,50.83
2022-09-15T02:04:18.427Z,50.71
2022-09-15T02:06:53.314Z,50.55
2022-09-15T02:09:23.370Z,50.62
2022-09-15T02:12:10.571Z,50.69
2022-09-15T02:14:49.248Z,50.55
2022-09-15T02:17:16.584Z,50.99
2022-09-15T02:19:47.924Z,50.86
2022-09-15T02:22:17.737Z,50.60
2022-09-15T02:24:50.152Z,50.71
2022-09-15T02:27:17.901Z,50.94
2022-09-15T02:29:45.322Z,51.79
2022-09-15T02:32:11.842Z,51.52
2022-09-15T02:34:40.616Z,51.83
2022-09-15T02:37:07.012Z,51.69
2022-09-15T02:39:35.047Z,51.52
2022-09-15T02:42:02.546Z,51.52
2022-09-15T02:44:30.686Z,51.47
2022-09-15T02:46:58.017Z,51.26
2022-09-15T02:49:24.441Z,51.13
2022-09-15T02:51:50.825Z,50.71
2022-09-15T02:54:17.241Z,50.56
2022-09-15T02:56:43.652Z,50.99
2022-09-15T02:59:10.075Z,50.52
2022-09-15T03:01:36.535Z,50.51
2022-09-15T03:04:03.100Z,51.15
2022-09-15T03:06:34.483Z,55.69
2022-09-15T03:09:01.404Z,50.33
2022-09-15T03:11:28.103Z,49.88
2022-09-15T03:13:55.113Z,50.27
2022-09-15T03:16:21.603Z,50.76
2022-09-15T03:18:48.445Z,50.26
2022-09-15T03:21:15.002Z,50.22
2022-09-15T03:23:41.729Z,50.54
2022-09-15T03:26:09.086Z,50.56
2022-09-15T03:28:35.826Z,50.41
2022-09-15T03:31:02.392Z,50.55
2022-09-15T03:33:29.912Z,50.71
2022-09-15T03:35:56.327Z,51.09
2022-09-15T03:38:23.231Z,51.17
2022-09-15T03:40:56.342Z,51.06
2022-09-15T03:43:22.764Z,51.19
2022-09-15T03:45:49.209Z,51.79
2022-09-15T03:48:15.663Z,51.52
2022-09-15T03:50:42.064Z,51.49
2022-09-15T03:53:08.514Z,51.40
2022-09-15T03:55:35.090Z,51.62
2022-09-15T03:58:01.537Z,52.10
2022-09-15T04:00:28.002Z,52.49
2022-09-15T04:02:54.725Z,52.43
2022-09-15T04:05:21.121Z,52.37
2022-09-15T04:07:47.529Z,52.25
2022-09-15T04:10:14.326Z,51.93
2022-09-15T04:12:40.820Z,51.56
2022-09-15T04:15:07.403Z,50.99
2022-09-15T04:17:33.823Z,50.86
2022-09-15T04:20:00.218Z,51.96
2022-09-15T04:22:27.640Z,51.36
2022-09-15T04:24:54.124Z,50.50
2022-09-15T04:27:20.913Z,49.94
2022-09-15T04:29:47.313Z,49.83
2022-09-15T04:32:13.746Z,50.02
2022-09-15T04:34:41.543Z,49.99
2022-09-15T04:37:08.063Z,50.02
2022-09-15T04:39:34.601Z,49.92
2022-09-15T04:42:03.755Z,50.08
2022-09-15T04:44:30.140Z,50.63
2022-09-15T04:46:56.632Z,50.73
2022-09-15T04:49:23.104Z,50.37
2022-09-15T04:51:49.562Z,51.63
2022-09-15T04:54:15.945Z,52.04
2022-09-15T04:56:42.746Z,51.85
2022-09-15T04:59:12.427Z,52.29
2022-09-15T05:01:38.897Z,52.33
2022-09-15T05:04:05.398Z,52.38
2022-09-15T05:06:31.830Z,52.42
2022-09-15T05:08:58.284Z,52.42
2022-09-15T05:11:24.920Z,52.80
2022-09-15T05:13:51.545Z,52.86
2022-09-15T05:16:21.574Z,52.89
2022-09-15T05:18:48.559Z,52.94
2022-09-15T05:21:16.235Z,52.59
2022-09-15T05:23:42.880Z,53.44
2022-09-15T05:26:11.584Z,53.36
2022-09-15T05:28:38.016Z,53.65
2022-09-15T05:31:25.006Z,53.98
2022-09-15T05:33:52.690Z,53.68
2022-09-15T05:36:21.209Z,53.39
2022-09-15T05:38:47.761Z,53.05
2022-09-15T05:41:17.571Z,53.76
2022-09-15T05:43:44.347Z,54.24
2022-09-15T05:46:10.956Z,54.40
2022-09-15T05:48:37.526Z,54.27
2022-09-15T05:51:04.036Z,57.61
2022-09-15T05:53:31.064Z,54.12
2022-09-15T05:55:57.859Z,54.04
2022-09-15T05:58:24.732Z,55.24
2022-09-15T06:00:51.314Z,53.07
2022-09-15T06:03:17.843Z,53.55
2022-09-15T06:05:46.842Z,52.82
2022-09-15T06:08:13.292Z,52.72
2022-09-15T06:10:40.036Z,52.28
2022-09-15T06:13:06.521Z,52.33
2022-09-15T06:15:32.998Z,52.80
2022-09-15T06:17:59.446Z,52.10
2022-09-15T06:20:25.897Z,51.70
2022-09-15T06:22:53.016Z,51.99
2022-09-15T06:25:19.792Z,51.50
2022-09-15T06:27:48.462Z,51.85
2022-09-15T06:30:14.873Z,52.42
2022-09-15T06:32:44.126Z,52.15
2022-09-15T06:35:12.694Z,52.39
2022-09-15T06:37:39.138Z,52.50
2022-09-15T06:40:07.837Z,51.40
2022-09-15T06:42:34.307Z,50.95
2022-09-15T06:45:01.238Z,50.89
2022-09-15T06:47:33.878Z,51.11
2022-09-15T06:50:00.830Z,49.31
2022-09-15T06:52:27.417Z,51.37
2022-09-15T06:54:53.841Z,50.43
2022-09-15T06:57:20.394Z,48.64
2022-09-15T07:02:50.808Z,49.23
2022-09-15T07:05:17.402Z,49.60
2022-09-15T07:07:44.014Z,48.65
2022-09-15T07:10:10.443Z,48.58
2022-09-15T07:12:37.279Z,49.71
2022-09-15T07:15:03.865Z,48.38
2022-09-15T07:17:30.286Z,48.01
2022-09-15T07:19:56.717Z,49.19
2022-09-15T07:22:24.521Z,47.84
2022-09-15T07:24:50.967Z,46.95
2022-09-15T07:27:17.346Z,46.59
2022-09-15T07:29:43.945Z,44.80
2022-09-15T07:32:10.353Z,43.30
2022-09-15T07:34:36.865Z,41.44
2022-09-15T07:37:03.313Z,39.72
2022-09-15T07:39:30.996Z,37.74
2022-09-15T07:41:57.783Z,36.12
2022-09-15T07:44:24.251Z,35.74
2022-09-15T07:46:50.741Z,32.97
2022-09-15T07:49:17.190Z,33.63
2022-09-15T07:51:43.623Z,33.78
2022-09-15T07:54:10.052Z,34.81
2022-09-15T07:56:36.949Z,34.11
2022-09-15T07:59:03.414Z,33.68
2022-09-15T08:01:29.851Z,32.84
2022-09-15T08:03:56.308Z,33.16
2022-09-15T08:06:23.262Z,34.84
2022-09-15T08:08:53.996Z,34.61
2022-09-15T08:11:22.998Z,35.18
2022-09-15T08:13:50.004Z,35.15
2022-09-15T08:16:18.025Z,33.93
2022-09-15T08:18:44.582Z,33.16
2022-09-15T08:21:11.930Z,30.74
2022-09-15T08:23:38.411Z,29.66
2022-09-15T08:26:13.065Z,29.82
2022-09-15T08:28:40.193Z,30.73
2022-09-15T08:31:07.212Z,32.41
2022-09-15T08:33:33.715Z,31.86
2022-09-15T08:36:00.724Z,31.42
2022-09-15T08:38:27.155Z,30.79
2022-09-15T08:40:57.298Z,30.62
2022-09-15T08:43:23.853Z,28.55
2022-09-15T08:45:52.302Z,28.08
2022-09-15T08:48:19.453Z,26.88
2022-09-15T08:50:46.095Z,26.04
2022-09-15T08:53:14.112Z,27.04
2022-09-15T08:55:50.059Z,26.51
2022-09-15T08:58:17.179Z,26.11
2022-09-15T09:00:44.357Z,24.47
2022-09-15T09:03:10.836Z,23.42
2022-09-15T09:05:41.629Z,23.31
2022-09-15T09:08:10.789Z,23.05
2022-09-15T09:10:49.425Z,23.10
2022-09-15T09:13:20.851Z,23.53
2022-09-15T09:16:16.916Z,24.21
2022-09-15T09:19:02.306Z,22.18
2022-09-15T09:21:32.227Z,21.97
2022-09-15T09:24:01.866Z,22.20
2022-09-15T09:26:28.481Z,21.34
2022-09-15T09:28:58.921Z,21.35
2022-09-15T09:31:25.589Z,22.01
2022-09-15T09:33:55.110Z,21.60
2022-09-15T09:36:21.888Z,20.92
2022-09-15T09:38:48.304Z,20.24
2022-09-15T09:41:15.352Z,19.87
2022-09-15T09:43:46.305Z,20.12
2022-09-15T09:46:15.271Z,19.88
2022-09-15T09:49:07.900Z,21.92
2022-09-15T09:51:35.711Z,23.21
2022-09-15T09:54:12.721Z,23.62
2022-09-15T09:56:39.301Z,22.68
2022-09-15T09:59:05.733Z,23.04
2022-09-15T10:01:32.249Z,24.11
2022-09-15T10:04:17.104Z,24.42
2022-09-15T10:06:44.031Z,24.61
2022-09-15T10:09:14.307Z,25.01
2022-09-15T10:11:45.109Z,25.48
2022-09-15T10:14:28.412Z,26.69
2022-09-15T10:16:58.727Z,26.67
2022-09-15T10:19:25.418Z,27.40
2022-09-15T10:21:51.845Z,27.33
2022-09-15T10:24:27.459Z,27.54
2022-09-15T10:27:07.050Z,28.04
2022-09-15T10:29:39.920Z,27.92
2022-09-15T10:32:16.584Z,27.87
2022-09-15T10:34:44.082Z,27.84
2022-09-15T10:37:19.405Z,27.81
2022-09-15T10:39:52.883Z,28.55
2022-09-15T10:42:22.213Z,28.65
2022-09-15T10:45:11.204Z,28.49
2022-09-15T10:47:41.612Z,28.28
2022-09-15T10:50:14.312Z,28.33
2022-09-15T10:52:40.736Z,28.46
2022-09-15T10:55:31.822Z,28.55
2022-09-15T10:58:04.271Z,28.75
2022-09-15T11:00:41.191Z,28.68
2022-09-15T11:03:07.628Z,29.05
2022-09-15T11:05:34.040Z,28.98
2022-09-15T11:08:19.446Z,29.29
2022-09-15T11:10:48.884Z,29.41
2022-09-15T11:13:25.693Z,29.85
2022-09-15T11:15:55.180Z,30.04
2022-09-15T11:18:40.212Z,30.81
2022-09-15T11:21:16.927Z,30.84
2022-09-15T11:23:55.655Z,31.01
2022-09-15T11:26:28.157Z,30.92
2022-09-15T11:28:56.553Z,31.53
2022-09-15T11:31:38.732Z,33.32
2022-09-15T11:34:15.228Z,33.79
2022-09-15T11:36:49.430Z,34.44
2022-09-15T11:39:33.691Z,34.31
2022-09-15T11:42:07.798Z,35.31
2022-09-15T11:44:41.815Z,36.74
2022-09-15T11:47:13.699Z,38.28
2022-09-15T11:49:40.145Z,37.91
2022-09-15T11:52:12.774Z,38.42
2022-09-15T11:54:46.974Z,38.10
2022-09-15T11:57:18.084Z,37.86
2022-09-15T11:59:52.239Z,38.09
2022-09-15T12:02:57.337Z,37.75
2022-09-15T12:05:23.929Z,37.71
2022-09-15T12:07:51.572Z,37.53
2022-09-15T12:10:19.102Z,37.58
2022-09-15T12:16:07.677Z,38.42
2022-09-15T12:18:48.777Z,38.74
2022-09-15T12:21:22.983Z,39.01
2022-09-15T12:23:54.756Z,39.53
2022-09-15T12:26:21.547Z,39.27
2022-09-15T12:28:58.076Z,39.48
2022-09-15T12:31:25.565Z,39.87
2022-09-15T12:33:56.284Z,40.49
2022-09-15T12:36:31.967Z,40.42
2022-09-15T12:38:58.767Z,40.46
2022-09-15T12:41:25.324Z,40.12
2022-09-15T12:43:54.814Z,39.99
2022-09-15T12:46:21.401Z,39.54
2022-09-15T12:48:47.857Z,40.19
2022-09-15T12:51:21.369Z,39.99
2022-09-15T12:53:47.754Z,40.27
2022-09-15T12:56:59.858Z,40.54
2022-09-15T12:59:26.417Z,40.06
2022-09-15T13:01:53.652Z,40.20
2022-09-15T13:04:24.728Z,40.62
2022-09-15T13:07:10.136Z,42.39
2022-09-15T13:09:56.792Z,45.56
2022-09-15T13:12:24.120Z,48.62
2022-09-15T13:14:50.590Z,64.82
2022-09-15T13:17:18.417Z,66.70
2022-09-15T13:19:46.769Z,62.39
2022-09-15T13:22:27.448Z,63.15
2022-09-15T13:25:10.909Z,64.23
2022-09-15T13:27:41.358Z,64.48
2022-09-15T13:30:19.162Z,64.08
2022-09-15T13:32:45.557Z,63.97
2022-09-15T13:35:30.980Z,64.10
2022-09-15T13:38:20.219Z,64.27
2022-09-15T13:40:58.375Z,64.26
2022-09-15T13:43:42.457Z,63.78
2022-09-15T13:46:25.083Z,64.94
2022-09-15T13:49:17.827Z,65.23
2022-09-15T13:51:45.068Z,65.12
2022-09-15T13:54:19.161Z,64.82
2022-09-15T13:56:46.890Z,65.23
2022-09-15T13:59:17.073Z,65.05
2022-09-15T14:01:44.572Z,64.91
2022-09-15T14:04:17.819Z,65.01
2022-09-15T14:06:44.898Z,65.25
2022-09-15T14:09:16.329Z,64.85
2022-09-15T14:11:42.887Z,64.87
2022-09-15T14:14:21.327Z,65.15
2022-09-15T14:16:48.899Z,65.26
2022-09-15T14:19:21.049Z,65.36
2022-09-15T14:21:49.163Z,65.27
2022-09-15T14:24:20.534Z,64.89
2022-09-15T14:26:47.071Z,65.08
2022-09-15T14:29:15.124Z,65.14
2022-09-15T14:31:41.603Z,65.00
2022-09-15T14:34:14.581Z,64.59
2022-09-15T14:36:41.131Z,64.69
2022-09-15T14:39:10.479Z,64.52
2022-09-15T14:41:37.200Z,64.59
2022-09-15T14:47:27.885Z,64.58
2022-09-15T14:50:08.106Z,64.46
2022-09-15T14:52:36.098Z,64.73
2022-09-15T14:55:03.106Z,64.99
2022-09-15T14:57:31.238Z,65.04
2022-09-15T14:59:59.740Z,64.89
2022-09-15T15:02:38.344Z,65.08
2022-09-15T15:05:09.886Z,64.72
2022-09-15T15:07:36.782Z,65.45
2022-09-15T15:10:07.155Z,65.50
2022-09-15T15:12:34.862Z,65.38
2022-09-15T15:15:01.329Z,65.36
2022-09-15T15:17:33.841Z,65.22
2022-09-15T15:20:01.123Z,65.11
2022-09-15T15:22:27.540Z,65.22
2022-09-15T15:24:54.056Z,64.93
2022-09-15T15:27:32.844Z,64.94
2022-09-15T15:30:18.302Z,64.52
2022-09-15T15:32:44.726Z,64.80
2022-09-15T15:35:15.707Z,64.66
2022-09-15T15:37:46.371Z,64.88
2022-09-15T15:40:14.357Z,64.82
2022-09-15T15:42:59.924Z,65.29
2022-09-15T15:45:27.464Z,65.29
2022-09-15T15:47:54.020Z,65.13
2022-09-15T15:50:21.364Z,64.89
2022-09-15T15:52:48.205Z,64.51
2022-09-15T15:55:15.709Z,64.64
2022-09-15T15:57:42.123Z,64.54
2022-09-15T16:00:30.526Z,64.79
2022-09-15T16:02:57.311Z,64.50
2022-09-15T16:05:26.761Z,64.64
2022-09-15T16:07:53.179Z,65.15
2022-09-15T16:10:20.988Z,65.03
2022-09-15T16:12:48.109Z,64.81
2022-09-15T16:15:16.742Z,64.86
2022-09-15T16:17:46.639Z,65.30
2022-09-15T16:20:15.767Z,64.65
2022-09-15T16:22:42.461Z,64.74
2022-09-15T16:25:13.623Z,64.36
2022-09-15T16:27:41.656Z,64.22
2022-09-15T16:30:12.052Z,64.19
2022-09-15T16:32:39.753Z,63.99
2022-09-15T16:35:21.460Z,63.80
2022-09-15T16:37:47.847Z,63.83
2022-09-15T16:40:14.496Z,63.93
2022-09-15T16:42:40.968Z,63.82
2022-09-15T16:45:16.214Z,63.60
2022-09-15T16:47:42.636Z,63.76
2022-09-15T16:50:09.800Z,64.03
2022-09-15T16:52:36.286Z,63.87
2022-09-15T16:55:06.121Z,63.83
2022-09-15T16:57:32.548Z,63.40
2022-09-15T16:59:58.984Z,63.69
2022-09-15T17:02:25.652Z,63.81
2022-09-15T17:05:09.221Z,63.73
2022-09-15T17:07:35.731Z,63.79
2022-09-15T17:10:02.144Z,63.65
2022-09-15T17:12:28.586Z,63.86
2022-09-15T17:14:57.580Z,63.78
2022-09-15T17:17:24.535Z,63.71
2022-09-15T17:19:50.939Z,63.53
2022-09-15T17:22:17.428Z,63.74
2022-09-15T17:24:43.893Z,63.64
2022-09-15T17:27:10.359Z,63.81
2022-09-15T17:29:36.781Z,63.50
2022-09-15T17:32:03.221Z,63.66
2022-09-15T17:34:29.695Z,63.52
2022-09-15T17:36:57.475Z,63.46
2022-09-15T17:39:24.078Z,63.55
2022-09-15T17:41:50.895Z,63.40
2022-09-15T17:44:17.365Z,63.64
2022-09-15T17:46:43.848Z,63.83
2022-09-15T17:49:12.569Z,63.72
2022-09-15T17:51:39.074Z,63.79
2022-09-15T17:54:07.431Z,63.74
2022-09-15T17:56:34.220Z,63.84
2022-09-15T17:59:00.846Z,63.96
2022-09-15T18:01:27.311Z,63.98
2022-09-15T18:03:53.958Z,63.94
2022-09-15T18:06:20.428Z,63.83
2022-09-15T18:08:46.876Z,63.78
2022-09-15T18:11:13.642Z,64.17
2022-09-15T18:13:40.066Z,64.19
2022-09-15T18:16:07.937Z,64.12
2022-09-15T18:18:34.457Z,64.28
2022-09-15T18:21:01.142Z,64.06
2022-09-15T18:23:29.619Z,64.03
2022-09-15T18:25:56.352Z,64.11
2022-09-15T18:28:22.827Z,64.15
2022-09-15T18:30:49.902Z,64.17
2022-09-15T18:33:16.392Z,64.03
2022-09-15T18:35:43.028Z,64.06
2022-09-15T18:38:09.517Z,63.73
2022-09-15T18:40:36.049Z,63.64
2022-09-15T18:43:02.478Z,63.73
2022-09-15T18:45:28.905Z,63.76
2022-09-15T18:47:55.474Z,63.63
2022-09-15T18:50:22.713Z,63.61
2022-09-15T18:52:49.477Z,63.48
2022-09-15T18:55:16.939Z,63.15
2022-09-15T18:57:43.685Z,63.38
2022-09-15T19:00:12.026Z,63.14
2022-09-15T19:02:38.646Z,63.19
2022-09-15T19:05:05.796Z,63.22
2022-09-15T19:07:32.306Z,63.39
2022-09-15T19:09:59.043Z,63.03
2022-09-15T19:12:25.584Z,62.59
2022-09-15T19:14:52.058Z,62.58
2022-09-15T19:17:18.510Z,62.38
2022-09-15T19:19:46.505Z,62.47
2022-09-15T19:22:12.991Z,62.10
2022-09-15T19:24:39.454Z,62.50
2022-09-15T19:27:06.321Z,62.94
2022-09-15T19:29:34.896Z,62.90
2022-09-15T19:32:04.828Z,63.15
2022-09-15T19:34:31.254Z,63.01
2022-09-15T19:36:57.855Z,63.16
2022-09-15T19:39:24.294Z,63.11
2022-09-15T19:41:50.771Z,63.31
2022-09-15T19:44:17.260Z,63.61
2022-09-15T19:46:43.807Z,63.66
2022-09-15T19:49:10.337Z,63.61
2022-09-15T19:51:37.227Z,63.70
2022-09-15T19:54:04.476Z,63.17
2022-09-15T19:56:31.126Z,62.78
2022-09-15T19:58:57.807Z,62.40
2022-09-15T20:01:24.726Z,62.59
2022-09-15T20:03:52.676Z,61.88
2022-09-15T20:06:19.192Z,61.96
2022-09-15T20:08:47.408Z,61.50
2022-09-15T20:11:14.345Z,60.95
2022-09-15T20:13:44.125Z,60.83
2022-09-15T20:16:19.738Z,60.51
2022-09-15T20:18:47.753Z,60.30
2022-09-15T20:21:26.952Z,60.20
2022-09-15T20:23:59.431Z,60.22
2022-09-15T20:26:26.178Z,60.24
2022-09-15T20:28:53.592Z,60.30
2022-09-15T20:31:24.637Z,60.35
2022-09-15T20:33:51.817Z,60.30
2022-09-15T20:36:23.422Z,60.27
2022-09-15T20:38:49.976Z,60.26
2022-09-15T20:41:16.989Z,60.45
2022-09-15T20:43:43.498Z,60.54
2022-09-15T20:46:13.776Z,60.32
2022-09-15T20:48:40.359Z,60.29
2022-09-15T20:51:06.811Z,60.16
2022-09-15T20:53:33.525Z,60.12
2022-09-15T20:55:59.978Z,60.07
2022-09-15T20:58:26.453Z,59.95
2022-09-15T21:01:01.576Z,59.67
2022-09-15T21:03:28.139Z,59.62
2022-09-15T21:05:58.181Z,59.57
2022-09-15T21:08:24.614Z,59.58
2022-09-15T21:10:51.012Z,59.73
2022-09-15T21:13:19.260Z,59.77
2022-09-15T21:15:53.338Z,59.75
2022-09-15T21:18:20.376Z,59.62
2022-09-15T21:20:47.814Z,59.32
2022-09-15T21:23:14.281Z,59.45
2022-09-15T21:25:40.697Z,60.04
2022-09-15T21:28:07.741Z,59.88
2022-09-15T21:30:34.152Z,59.51
2022-09-15T21:33:01.206Z,59.86
2022-09-15T21:35:27.627Z,60.09
2022-09-15T21:37:57.593Z,59.71
2022-09-15T21:40:26.536Z,59.92
2022-09-15T21:42:52.955Z,59.80
2022-09-15T21:45:19.855Z,60.06
2022-09-15T21:47:46.305Z,60.42
2022-09-15T21:50:12.756Z,60.61
2022-09-15T21:52:39.542Z,60.78
2022-09-15T21:55:06.637Z,60.98
2022-09-15T21:57:33.132Z,60.99
2022-09-15T21:59:59.670Z,61.22
2022-09-15T22:02:26.165Z,61.14
2022-09-15T22:04:52.689Z,61.05
2022-09-15T22:07:19.416Z,61.37
2022-09-15T22:09:46.563Z,60.38
2022-09-15T22:12:13.121Z,60.06
2022-09-15T22:14:39.533Z,60.02
2022-09-15T22:17:05.952Z,59.70
2022-09-15T22:19:32.529Z,59.04
2022-09-15T22:21:59.228Z,58.93
2022-09-15T22:24:26.734Z,59.38
2022-09-15T22:26:53.159Z,58.99
2022-09-15T22:29:19.703Z,59.09
2022-09-15T22:31:46.476Z,59.52
2022-09-15T22:34:12.980Z,59.73
2022-09-15T22:36:39.515Z,59.05
2022-09-15T22:39:06.358Z,59.00
2022-09-15T22:41:33.959Z,59.07
2022-09-15T22:44:00.348Z,59.51
2022-09-15T22:46:27.072Z,59.78
2022-09-15T22:48:53.568Z,59.38
2022-09-15T22:51:20.017Z,59.75
2022-09-15T22:53:46.847Z,60.15
2022-09-15T22:56:14.664Z,59.38
2022-09-15T22:58:41.808Z,59.00
2022-09-15T23:01:09.826Z,59.56
2022-09-15T23:03:36.994Z,59.97
2022-09-15T23:06:03.394Z,59.30
2022-09-15T23:08:29.991Z,59.79
2022-09-15T23:11:06.330Z,59.38
2022-09-15T23:13:33.220Z,59.04
2022-09-15T23:15:59.738Z,57.99
2022-09-15T23:18:27.351Z,58.30
2022-09-15T23:20:57.861Z,59.00
2022-09-15T23:23:24.273Z,58.75
2022-09-15T23:25:50.720Z,58.49
2022-09-15T23:28:17.226Z,57.49
2022-09-15T23:30:43.757Z,57.15
2022-09-15T23:33:10.155Z,57.21
2022-09-15T23:35:36.656Z,57.87
2022-09-15T23:38:03.044Z,58.58
2022-09-15T23:40:29.782Z,58.80
2022-09-15T23:42:56.295Z,57.67
2022-09-15T23:45:22.711Z,57.26
2022-09-15T23:47:49.378Z,57.32
2022-09-15T23:50:15.892Z,58.25
2022-09-15T23:52:42.349Z,56.69
2022-09-15T23:55:08.927Z,57.22
2022-09-15T23:57:35.553Z,57.00
